createdAt,value
2019-05-26T00:00:10.817Z,100755.17
2019-05-26T00:02:40.911Z,100744.98
2019-05-26T00:05:10.663Z,100750.70
2019-05-26T00:07:40.246Z,100748.03
2019-05-26T00:10:10.481Z,100740.45
2019-05-26T00:12:40.317Z,100737.37
2019-05-26T00:15:10.245Z,100735.61
2019-05-26T00:17:39.750Z,100742.66
2019-05-26T00:20:09.642Z,100734.69
2019-05-26T00:22:39.209Z,100725.37
2019-05-26T00:25:09.198Z,100728.91
2019-05-26T00:27:38.756Z,100733.30
2019-05-26T00:30:10.511Z,100732.40
2019-05-26T00:32:40.013Z,100731.05
2019-05-26T00:35:09.634Z,100724.41
2019-05-26T00:37:49.200Z,100734.53
2019-05-26T00:40:10.826Z,100729.22
2019-05-26T00:42:40.343Z,100732.68
2019-05-26T00:45:10.567Z,100730.01
2019-05-26T00:47:40.551Z,100737.05
2019-05-26T00:50:10.642Z,100726.45
2019-05-26T00:52:40.599Z,100723.80
2019-05-26T00:55:10.618Z,100723.38
2019-05-26T00:57:40.166Z,100718.99
2019-05-26T01:00:11.637Z,100713.70
2019-05-26T01:02:41.276Z,100718.56
2019-05-26T01:05:11.226Z,100718.99
2019-05-26T01:07:40.829Z,100717.23
2019-05-26T01:10:10.710Z,100711.03
2019-05-26T01:12:41.161Z,100715.44
2019-05-26T01:15:12.388Z,100715.00
2019-05-26T01:17:41.851Z,100707.47
2019-05-26T01:20:11.569Z,100715.84
2019-05-26T01:22:41.266Z,100715.41
2019-05-26T01:25:11.294Z,100720.23
2019-05-26T01:27:40.779Z,100710.05
2019-05-26T01:30:11.670Z,100718.00
2019-05-26T01:32:41.195Z,100716.68
2019-05-26T01:35:10.810Z,100714.48
2019-05-26T01:37:41.035Z,100710.51
2019-05-26T01:40:10.722Z,100706.06
2019-05-26T01:42:40.206Z,100703.83
2019-05-26T01:45:09.994Z,100700.73
2019-05-26T01:47:39.476Z,100701.58
2019-05-26T01:50:09.364Z,100707.75
2019-05-26T01:52:38.846Z,100701.96
2019-05-26T01:55:08.505Z,100702.81
2019-05-26T01:57:37.987Z,100703.23
2019-05-26T02:00:08.297Z,100700.12
2019-05-26T02:02:37.922Z,100693.91
2019-05-26T02:05:08.661Z,100697.39
2019-05-26T02:07:38.113Z,100696.05
2019-05-26T02:10:07.836Z,100694.70
2019-05-26T02:12:37.321Z,100697.75
2019-05-26T02:15:07.647Z,100693.30
2019-05-26T02:17:37.514Z,100690.16
2019-05-26T02:20:09.022Z,100694.13
2019-05-26T02:22:39.042Z,100683.53
2019-05-26T02:25:09.465Z,100691.47
2019-05-26T02:27:39.105Z,100685.27
2019-05-26T02:30:12.207Z,100679.55
2019-05-26T02:32:41.750Z,100683.94
2019-05-26T02:35:12.369Z,100679.97
2019-05-26T02:37:42.237Z,100679.12
2019-05-26T02:40:13.956Z,100679.14
2019-05-26T02:42:43.465Z,100672.09
2019-05-26T02:45:17.836Z,100671.63
2019-05-26T02:47:47.291Z,100670.77
2019-05-26T02:50:19.049Z,100676.91
2019-05-26T02:52:48.494Z,100672.09
2019-05-26T02:55:18.919Z,100666.80
2019-05-26T02:57:48.614Z,100668.56
2019-05-26T03:00:43.377Z,100669.45
2019-05-26T03:03:14.090Z,100661.91
2019-05-26T03:05:47.349Z,100664.56
2019-05-26T03:08:17.100Z,100659.70
2019-05-26T03:10:48.411Z,100657.95
2019-05-26T03:13:18.094Z,100659.70
2019-05-26T03:15:47.877Z,100654.83
2019-05-26T03:18:17.891Z,100653.08
2019-05-26T03:20:47.515Z,100653.09
2019-05-26T03:23:17.617Z,100648.68
2019-05-26T03:25:48.556Z,100645.62
2019-05-26T03:28:17.996Z,100639.45
2019-05-26T03:30:47.685Z,100639.51
2019-05-26T03:33:17.134Z,100640.87
2019-05-26T03:35:46.701Z,100642.25
2019-05-26T03:38:16.195Z,100638.73
2019-05-26T03:40:45.620Z,100636.56
2019-05-26T03:43:15.095Z,100641.44
2019-05-26T03:45:56.440Z,100640.13
2019-05-26T03:48:25.933Z,100635.28
2019-05-26T03:50:55.371Z,100641.48
2019-05-26T03:53:24.812Z,100632.27
2019-05-26T03:55:54.295Z,100635.80
2019-05-26T03:58:23.746Z,100626.11
2019-05-26T04:00:53.602Z,100623.92
2019-05-26T04:03:23.040Z,100621.72
2019-05-26T04:05:52.522Z,100623.95
2019-05-26T04:08:22.005Z,100618.72
2019-05-26T04:10:51.488Z,100620.53
2019-05-26T04:13:20.981Z,100613.03
2019-05-26T04:15:50.738Z,100616.19
2019-05-26T04:18:20.217Z,100612.25
2019-05-26T04:20:49.748Z,100611.88
2019-05-26T04:23:19.254Z,100618.53
2019-05-26T04:25:48.705Z,100615.52
2019-05-26T04:28:19.155Z,100611.12
2019-05-26T04:30:48.721Z,100616.01
2019-05-26T04:33:18.191Z,100610.30
2019-05-26T04:35:48.506Z,100606.81
2019-05-26T04:38:18.064Z,100604.22
2019-05-26T04:40:47.575Z,100605.55
2019-05-26T04:43:17.057Z,100602.95
2019-05-26T04:45:47.647Z,100607.84
2019-05-26T04:48:17.048Z,100603.88
2019-05-26T04:50:46.565Z,100602.13
2019-05-26T04:53:16.017Z,100607.48
2019-05-26T04:55:45.499Z,100606.20
2019-05-26T04:58:14.938Z,100602.27
2019-05-26T05:00:44.419Z,100593.03
2019-05-26T05:03:14.230Z,100594.40
2019-05-26T05:05:44.057Z,100593.97
2019-05-26T05:08:13.502Z,100595.77
2019-05-26T05:10:43.189Z,100598.88
2019-05-26T05:13:12.708Z,100594.47
2019-05-26T05:15:42.195Z,100595.44
2019-05-26T05:18:12.970Z,100593.23
2019-05-26T05:20:42.426Z,100595.48
2019-05-26T05:23:11.911Z,100585.75
2019-05-26T05:25:41.370Z,100591.08
2019-05-26T05:28:10.849Z,100593.78
2019-05-26T05:30:40.305Z,100596.44
2019-05-26T05:33:09.858Z,100592.45
2019-05-26T05:35:39.334Z,100596.89
2019-05-26T05:38:08.776Z,100592.44
2019-05-26T05:40:38.270Z,100590.66
2019-05-26T05:43:07.716Z,100585.80
2019-05-26T05:45:37.231Z,100587.11
2019-05-26T05:48:06.703Z,100580.47
2019-05-26T05:50:39.139Z,100586.23
2019-05-26T05:53:07.783Z,100583.52
2019-05-26T05:55:37.568Z,100583.05
2019-05-26T05:58:07.017Z,100578.58
2019-05-26T06:00:36.499Z,100573.67
2019-05-26T06:03:06.239Z,100570.07
2019-05-26T06:05:36.095Z,100567.38
2019-05-26T06:08:05.614Z,100562.91
2019-05-26T06:10:36.520Z,100562.02
2019-05-26T06:13:06.032Z,100557.12
2019-05-26T06:15:36.005Z,100564.20
2019-05-26T06:18:05.476Z,100561.06
2019-05-26T06:20:34.963Z,100560.16
2019-05-26T06:23:04.596Z,100553.91
2019-05-26T06:25:34.071Z,100564.48
2019-05-26T06:28:03.581Z,100559.14
2019-05-26T06:30:33.063Z,100559.08
2019-05-26T06:33:02.514Z,100554.52
2019-05-26T06:35:32.919Z,100555.32
2019-05-26T06:38:03.250Z,100553.87
2019-05-26T06:40:32.815Z,100554.64
2019-05-26T06:43:02.284Z,100554.47
2019-05-26T06:45:31.741Z,100554.31
2019-05-26T06:48:01.645Z,100552.80
2019-05-26T06:50:31.627Z,100557.94
2019-05-26T06:53:01.096Z,100548.75
2019-05-26T06:55:30.589Z,100553.83
2019-05-26T06:58:00.068Z,100557.08
2019-05-26T07:00:30.538Z,100552.34
2019-05-26T07:03:00.023Z,100556.98
2019-05-26T07:05:29.469Z,100549.13
2019-05-26T07:07:58.992Z,100540.78
2019-05-26T07:10:28.469Z,100542.95
2019-05-26T07:12:57.916Z,100542.81
2019-05-26T07:15:27.804Z,100542.27
2019-05-26T07:17:57.247Z,100541.69
2019-05-26T07:20:26.739Z,100541.95
2019-05-26T07:22:56.180Z,100534.71
2019-05-26T07:25:25.666Z,100530.58
2019-05-26T07:27:55.209Z,100534.01
2019-05-26T07:30:24.968Z,100534.27
2019-05-26T07:32:54.434Z,100529.84
2019-05-26T07:35:23.919Z,100531.73
2019-05-26T07:37:53.368Z,100526.94
2019-05-26T07:40:22.918Z,100530.52
2019-05-26T07:42:52.416Z,100521.39
2019-05-26T07:45:22.391Z,100520.34
2019-05-26T07:47:51.887Z,100519.45
2019-05-26T07:50:21.330Z,100522.66
2019-05-26T07:52:51.137Z,100522.70
2019-05-26T07:55:20.762Z,100524.85
2019-05-26T07:57:50.312Z,100522.50
2019-05-26T08:00:20.557Z,100517.81
2019-05-26T08:02:51.020Z,100520.48
2019-05-26T08:05:20.534Z,100511.55
2019-05-26T08:07:50.023Z,100515.53
2019-05-26T08:10:20.785Z,100519.92
2019-05-26T08:12:50.325Z,100518.22
2019-05-26T08:15:20.015Z,100519.63
2019-05-26T08:17:49.799Z,100513.20
2019-05-26T08:20:19.697Z,100515.27
2019-05-26T08:22:49.188Z,100503.98
2019-05-26T08:25:18.814Z,100514.55
2019-05-26T08:27:48.401Z,100510.12
2019-05-26T08:30:19.087Z,100505.66
2019-05-26T08:32:48.741Z,100514.14
2019-05-26T08:35:18.202Z,100510.16
2019-05-26T08:37:47.988Z,100509.23
2019-05-26T08:40:21.169Z,100511.73
2019-05-26T08:42:52.547Z,100500.01
2019-05-26T08:45:23.498Z,100509.54
2019-05-26T08:47:53.389Z,100502.25
2019-05-26T08:50:23.238Z,100497.91
2019-05-26T08:52:52.876Z,100492.40
2019-05-26T08:55:22.377Z,100483.20
2019-05-26T08:57:52.213Z,100488.14
2019-05-26T09:00:22.192Z,100485.10
2019-05-26T09:02:51.966Z,100475.80
2019-05-26T09:05:21.801Z,100477.88
2019-05-26T09:07:51.326Z,100484.97
2019-05-26T09:10:20.889Z,100486.73
2019-05-26T09:13:00.167Z,100488.95
2019-05-26T09:15:21.693Z,100486.77
2019-05-26T09:17:51.218Z,100477.80
2019-05-26T09:20:21.508Z,100477.34
2019-05-26T09:22:51.000Z,100484.16
2019-05-26T09:25:20.887Z,100477.20
2019-05-26T09:27:50.388Z,100479.05
2019-05-26T09:30:20.150Z,100471.11
2019-05-26T09:32:49.768Z,100477.40
2019-05-26T09:35:19.390Z,100486.16
2019-05-26T09:37:48.880Z,100465.52
2019-05-26T09:40:18.574Z,100456.59
2019-05-26T09:42:48.072Z,100459.47
2019-05-26T09:45:18.244Z,100454.77
2019-05-26T09:47:47.885Z,100451.88
2019-05-26T09:50:18.106Z,100453.39
2019-05-26T09:52:47.627Z,100460.58
2019-05-26T09:55:17.349Z,100446.96
2019-05-26T09:57:46.811Z,100450.53
2019-05-26T10:00:17.364Z,100449.80
2019-05-26T10:02:46.816Z,100445.20
2019-05-26T10:05:16.548Z,100446.17
2019-05-26T10:07:46.039Z,100453.11
2019-05-26T10:10:15.646Z,100443.44
2019-05-26T10:12:45.112Z,100446.91
2019-05-26T10:15:15.299Z,100449.28
2019-05-26T10:17:45.128Z,100450.34
2019-05-26T10:20:16.629Z,100440.35
2019-05-26T10:22:46.167Z,100447.96
2019-05-26T10:25:16.449Z,100437.14
2019-05-26T10:27:45.939Z,100446.65
2019-05-26T10:30:16.209Z,100435.83
2019-05-26T10:32:45.776Z,100428.29
2019-05-26T10:35:15.559Z,100429.69
2019-05-26T10:37:45.124Z,100425.23
2019-05-26T10:40:15.102Z,100425.38
2019-05-26T10:42:44.582Z,100420.90
2019-05-26T10:45:14.575Z,100413.64
2019-05-26T10:47:44.340Z,100423.84
2019-05-26T10:50:14.421Z,100421.89
2019-05-26T10:52:43.928Z,100419.20
2019-05-26T10:55:14.417Z,100417.56
2019-05-26T10:57:43.919Z,100426.39
2019-05-26T11:00:13.951Z,100414.94
2019-05-26T11:02:43.446Z,100415.00
2019-05-26T11:05:13.625Z,100415.97
2019-05-26T11:07:43.144Z,100410.74
2019-05-26T11:10:13.462Z,100413.33
2019-05-26T11:12:44.047Z,100420.55
2019-05-26T11:15:14.489Z,100408.48
2019-05-26T11:17:43.980Z,100410.84
2019-05-26T11:20:13.960Z,100404.33
2019-05-26T11:22:43.530Z,100412.16
2019-05-26T11:25:13.525Z,100411.62
2019-05-26T11:27:43.080Z,100414.39
2019-05-26T11:30:14.060Z,100410.13
2019-05-26T11:32:44.879Z,100404.20
2019-05-26T11:35:15.049Z,100412.63
2019-05-26T11:37:44.613Z,100406.37
2019-05-26T11:40:15.290Z,100405.36
2019-05-26T11:42:45.391Z,100405.91
2019-05-26T11:45:15.608Z,100400.72
2019-05-26T11:47:45.094Z,100389.13
2019-05-26T11:50:15.004Z,100387.36
2019-05-26T11:52:44.514Z,100384.84
2019-05-26T11:55:14.720Z,100383.81
2019-05-26T11:57:44.284Z,100384.34
2019-05-26T12:00:16.342Z,100374.51
2019-05-26T12:02:46.703Z,100372.34
2019-05-26T12:05:18.186Z,100371.02
2019-05-26T12:07:47.686Z,100364.56
2019-05-26T12:10:18.332Z,100364.62
2019-05-26T12:12:47.905Z,100369.65
2019-05-26T12:15:19.487Z,100365.89
2019-05-26T12:17:48.983Z,100360.80
2019-05-26T12:20:18.667Z,100361.41
2019-05-26T12:22:48.159Z,100351.97
2019-05-26T12:25:17.855Z,100357.27
2019-05-26T12:27:47.432Z,100361.41
2019-05-26T12:30:17.622Z,100353.99
2019-05-26T12:32:47.259Z,100350.23
2019-05-26T12:35:17.037Z,100348.87
2019-05-26T12:37:48.526Z,100349.48
2019-05-26T12:40:18.632Z,100353.18
2019-05-26T12:42:48.117Z,100352.72
2019-05-26T12:45:18.229Z,100346.92
2019-05-26T12:47:47.724Z,100347.46
2019-05-26T12:50:18.218Z,100350.47
2019-05-26T12:52:48.233Z,100345.00
2019-05-26T12:55:17.838Z,100348.59
2019-05-26T12:57:47.344Z,100335.55
2019-05-26T13:00:18.522Z,100338.41
2019-05-26T13:02:48.110Z,100332.73
2019-05-26T13:05:18.628Z,100327.38
2019-05-26T13:07:49.053Z,100330.90
2019-05-26T13:10:20.278Z,100319.75
2019-05-26T13:12:49.724Z,100322.42
2019-05-26T13:15:20.049Z,100317.98
2019-05-26T13:17:49.638Z,100320.01
2019-05-26T13:20:20.032Z,100312.83
2019-05-26T13:22:49.869Z,100317.97
2019-05-26T13:25:20.108Z,100318.17
2019-05-26T13:27:49.589Z,100318.79
2019-05-26T13:30:26.981Z,100319.25
2019-05-26T13:32:56.540Z,100313.78
2019-05-26T13:35:26.438Z,100317.08
2019-05-26T13:37:56.547Z,100314.22
2019-05-26T13:40:29.448Z,100314.22
2019-05-26T13:42:57.492Z,100308.55
2019-05-26T13:45:27.812Z,100295.27
2019-05-26T13:47:57.591Z,100307.42
2019-05-26T13:50:27.301Z,100306.47
2019-05-26T13:52:56.948Z,100311.71
2019-05-26T13:55:26.462Z,100311.41
2019-05-26T13:57:55.925Z,100302.06
2019-05-26T14:00:26.042Z,100302.69
2019-05-26T14:02:55.571Z,100298.41
2019-05-26T14:05:26.112Z,100294.84
2019-05-26T14:07:55.645Z,100302.70
2019-05-26T14:10:34.011Z,100303.08
2019-05-26T14:13:03.703Z,100293.04
2019-05-26T14:15:38.512Z,100304.06
2019-05-26T14:18:05.567Z,100289.09
2019-05-26T14:20:37.427Z,100290.45
2019-05-26T14:23:07.988Z,100279.46
2019-05-26T14:25:37.937Z,100285.76
2019-05-26T14:28:08.158Z,100277.27
2019-05-26T14:30:37.806Z,100285.77
2019-05-26T14:33:07.488Z,100259.92
2019-05-26T14:35:37.077Z,100264.27
2019-05-26T14:38:06.654Z,100263.94
2019-05-26T14:40:36.534Z,100265.16
2019-05-26T14:43:06.155Z,100260.69
2019-05-26T14:45:36.079Z,100254.52
2019-05-26T14:48:06.376Z,100255.16
2019-05-26T14:50:35.993Z,100249.13
2019-05-26T14:53:07.501Z,100249.09
2019-05-26T14:55:37.001Z,100247.83
2019-05-26T14:58:15.530Z,100239.03
2019-05-26T15:00:37.656Z,100238.45
2019-05-26T15:03:07.145Z,100242.62
2019-05-26T15:05:36.619Z,100233.70
2019-05-26T15:08:06.140Z,100220.81
2019-05-26T15:10:35.659Z,100229.20
2019-05-26T15:13:05.245Z,100216.83
2019-05-26T15:15:35.226Z,100216.59
2019-05-26T15:18:05.218Z,100209.20
2019-05-26T15:20:34.664Z,100202.48
2019-05-26T15:23:04.297Z,100209.87
2019-05-26T15:25:34.034Z,100204.47
2019-05-26T15:28:03.564Z,100201.51
2019-05-26T15:30:33.062Z,100203.66
2019-05-26T15:33:02.995Z,100201.52
2019-05-26T15:35:32.947Z,100210.17
2019-05-26T15:38:02.501Z,100202.48
2019-05-26T15:40:31.966Z,100207.46
2019-05-26T15:43:01.454Z,100194.66
2019-05-26T15:45:30.974Z,100208.02
2019-05-26T15:48:00.461Z,100192.13
2019-05-26T15:50:30.044Z,100196.55
2019-05-26T15:52:59.621Z,100195.65
2019-05-26T15:55:29.538Z,100188.98
2019-05-26T15:57:59.303Z,100182.70
2019-05-26T16:00:29.142Z,100192.25
2019-05-26T16:02:58.656Z,100184.31
2019-05-26T16:05:28.145Z,100172.30
2019-05-26T16:07:58.680Z,100177.84
2019-05-26T16:10:28.594Z,100177.28
2019-05-26T16:12:58.023Z,100173.88
2019-05-26T16:15:27.581Z,100177.12
2019-05-26T16:17:57.037Z,100165.83
2019-05-26T16:20:26.934Z,100167.01
2019-05-26T16:22:56.428Z,100159.53
2019-05-26T16:25:25.869Z,100156.73
2019-05-26T16:27:55.350Z,100158.72
2019-05-26T16:30:24.886Z,100151.32
2019-05-26T16:32:54.475Z,100150.69
2019-05-26T16:35:23.993Z,100152.85
2019-05-26T16:37:53.787Z,100150.02
2019-05-26T16:40:23.338Z,100149.37
2019-05-26T16:42:52.900Z,100157.38
2019-05-26T16:45:22.526Z,100153.09
2019-05-26T16:47:52.002Z,100151.92
2019-05-26T16:50:21.444Z,100151.55
2019-05-26T16:52:54.455Z,100151.59
2019-05-26T16:55:22.807Z,100151.20
2019-05-26T16:57:52.367Z,100140.31
2019-05-26T17:00:22.046Z,100133.90
2019-05-26T17:02:51.694Z,100130.78
2019-05-26T17:05:21.223Z,100123.30
2019-05-26T17:07:50.838Z,100130.94
2019-05-26T17:10:20.418Z,100121.23
2019-05-26T17:12:51.140Z,100116.62
2019-05-26T17:15:20.687Z,100124.12
2019-05-26T17:17:50.237Z,100122.70
2019-05-26T17:20:20.125Z,100122.99
2019-05-26T17:22:49.698Z,100110.23
2019-05-26T17:25:19.282Z,100114.20
2019-05-26T17:27:49.179Z,100110.97
2019-05-26T17:30:22.079Z,100109.73
2019-05-26T17:32:50.493Z,100115.78
2019-05-26T17:35:20.126Z,100115.10
2019-05-26T17:37:49.714Z,100108.44
2019-05-26T17:40:23.332Z,100109.03
2019-05-26T17:42:53.999Z,100109.64
2019-05-26T17:45:23.919Z,100117.36
2019-05-26T17:47:54.761Z,100106.72
2019-05-26T17:50:24.515Z,100103.60
2019-05-26T17:52:54.032Z,100106.72
2019-05-26T17:55:23.920Z,100104.03
2019-05-26T17:57:53.396Z,100102.78
2019-05-26T18:00:23.936Z,100097.53
2019-05-26T18:02:53.534Z,100102.17
2019-05-26T18:05:23.017Z,100093.87
2019-05-26T18:07:52.579Z,100090.03
2019-05-26T18:10:22.298Z,100088.81
2019-05-26T18:12:52.018Z,100083.14
2019-05-26T18:15:21.568Z,100084.33
2019-05-26T18:17:51.038Z,100096.64
2019-05-26T18:20:21.205Z,100091.48
2019-05-26T18:22:51.771Z,100092.08
2019-05-26T18:25:21.365Z,100091.02
2019-05-26T18:27:50.807Z,100094.43
2019-05-26T18:30:20.543Z,100093.31
2019-05-26T18:32:50.127Z,100096.16
2019-05-26T18:35:19.634Z,100099.56
2019-05-26T18:37:52.175Z,100093.12
2019-05-26T18:40:20.416Z,100086.67
2019-05-26T18:42:50.223Z,100083.72
2019-05-26T18:45:20.190Z,100083.38
2019-05-26T18:48:02.590Z,100088.45
2019-05-26T18:50:21.184Z,100084.23
2019-05-26T18:52:51.059Z,100088.48
2019-05-26T18:55:20.530Z,100091.87
2019-05-26T18:57:50.021Z,100089.05
2019-05-26T19:00:19.661Z,100088.86
2019-05-26T19:02:49.476Z,100087.78
2019-05-26T19:05:32.372Z,100083.06
2019-05-26T19:07:50.178Z,100089.44
2019-05-26T19:10:20.725Z,100089.95
2019-05-26T19:12:50.272Z,100086.95
2019-05-26T19:15:21.066Z,100083.05
2019-05-26T19:17:50.565Z,100076.91
2019-05-26T19:20:20.215Z,100077.41
2019-05-26T19:22:53.113Z,100067.58
2019-05-26T19:25:21.298Z,100073.50
2019-05-26T19:27:51.067Z,100069.50
2019-05-26T19:30:21.585Z,100066.04
2019-05-26T19:32:51.137Z,100069.64
2019-05-26T19:35:20.769Z,100067.41
2019-05-26T19:37:50.284Z,100065.17
2019-05-26T19:40:19.940Z,100072.38
2019-05-26T19:42:49.492Z,100065.29
2019-05-26T19:45:19.190Z,100066.23
2019-05-26T19:47:48.654Z,100060.86
2019-05-26T19:50:19.383Z,100059.09
2019-05-26T19:52:49.891Z,100063.12
2019-05-26T19:55:19.778Z,100061.89
2019-05-26T19:57:50.327Z,100063.30
2019-05-26T20:00:20.343Z,100059.78
2019-05-26T20:02:49.870Z,100070.97
2019-05-26T20:05:19.532Z,100063.48
2019-05-26T20:07:49.058Z,100062.20
2019-05-26T20:10:18.853Z,100057.23
2019-05-26T20:12:49.068Z,100062.71
2019-05-26T20:15:20.024Z,100060.99
2019-05-26T20:17:49.666Z,100055.17
2019-05-26T20:20:20.968Z,100057.02
2019-05-26T20:22:51.522Z,100049.08
2019-05-26T20:25:22.061Z,100045.97
2019-05-26T20:27:51.881Z,100035.77
2019-05-26T20:30:23.342Z,100041.14
2019-05-26T20:32:54.420Z,100042.99
2019-05-26T20:35:23.857Z,100033.59
2019-05-26T20:37:53.356Z,100036.34
2019-05-26T20:40:22.923Z,100037.25
2019-05-26T20:42:52.373Z,100032.84
2019-05-26T20:45:21.952Z,100033.39
2019-05-26T20:47:51.562Z,100031.16
2019-05-26T20:50:29.220Z,100024.52
2019-05-26T20:52:53.046Z,100029.45
2019-05-26T20:55:22.613Z,100032.12
2019-05-26T20:57:52.083Z,100027.70
2019-05-26T21:00:21.941Z,100026.36
2019-05-26T21:02:51.448Z,100032.56
2019-05-26T21:05:21.093Z,100026.30
2019-05-26T21:07:50.618Z,100024.13
2019-05-26T21:10:20.190Z,100028.11
2019-05-26T21:12:49.922Z,100019.20
2019-05-26T21:15:19.662Z,100020.94
2019-05-26T21:17:49.419Z,100014.69
2019-05-26T21:20:20.591Z,100013.83
2019-05-26T21:22:50.026Z,100019.66
2019-05-26T21:25:19.530Z,100020.56
2019-05-26T21:27:49.034Z,100019.22
2019-05-26T21:30:18.903Z,100014.85
2019-05-26T21:32:48.480Z,100010.39
2019-05-26T21:35:18.166Z,100006.86
2019-05-26T21:37:47.655Z,100011.80
2019-05-26T21:40:17.177Z,100007.88
2019-05-26T21:42:46.659Z,100007.45
2019-05-26T21:45:16.241Z,100010.13
2019-05-26T21:47:45.729Z,100015.09
2019-05-26T21:50:15.446Z,100013.81
2019-05-26T21:52:45.017Z,100013.03
2019-05-26T21:55:14.601Z,100010.36
2019-05-26T21:57:44.039Z,100008.29
2019-05-26T22:00:16.360Z,100001.20
2019-05-26T22:02:47.483Z,100004.39
2019-05-26T22:05:17.448Z,99997.75
2019-05-26T22:07:46.948Z,99994.63
2019-05-26T22:10:16.698Z,99996.52
2019-05-26T22:12:47.125Z,99995.63
2019-05-26T22:15:16.878Z,99995.17
2019-05-26T22:17:46.430Z,99993.40
2019-05-26T22:20:17.486Z,99987.20
2019-05-26T22:22:46.957Z,99990.31
2019-05-26T22:25:16.384Z,99984.52
2019-05-26T22:27:45.859Z,99987.66
2019-05-26T22:30:15.784Z,99983.69
2019-05-26T22:32:45.230Z,99974.79
2019-05-26T22:35:14.778Z,99974.81
2019-05-26T22:37:44.232Z,99969.50
2019-05-26T22:40:15.562Z,99970.90
2019-05-26T22:42:45.169Z,99963.33
2019-05-26T22:45:15.282Z,99962.45
2019-05-26T22:47:45.110Z,99956.67
2019-05-26T22:50:14.672Z,99955.39
2019-05-26T22:52:44.140Z,99956.28
2019-05-26T22:55:13.644Z,99954.05
2019-05-26T22:57:43.130Z,99953.62
2019-05-26T23:00:13.432Z,99953.27
2019-05-26T23:02:42.935Z,99955.50
2019-05-26T23:05:12.547Z,99957.75
2019-05-26T23:07:42.155Z,99953.73
2019-05-26T23:10:11.761Z,99949.30
2019-05-26T23:12:41.252Z,99946.19
2019-05-26T23:15:11.395Z,99950.22
2019-05-26T23:17:40.949Z,99933.73
2019-05-26T23:20:10.758Z,99930.61
2019-05-26T23:22:40.251Z,99930.21
2019-05-26T23:25:09.939Z,99928.09
2019-05-26T23:27:39.486Z,99919.62
2019-05-26T23:30:09.366Z,99920.13
2019-05-26T23:32:39.144Z,99914.77
2019-05-26T23:35:08.822Z,99916.59
2019-05-26T23:37:38.296Z,99913.08
2019-05-26T23:40:08.045Z,99909.63
2019-05-26T23:42:38.824Z,99908.41
2019-05-26T23:45:09.233Z,99906.78
2019-05-26T23:47:38.668Z,99907.36
2019-05-26T23:50:09.078Z,99905.35
2019-05-26T23:52:38.567Z,99909.55
2019-05-26T23:55:08.937Z,99904.34
2019-05-26T23:57:38.427Z,99910.33
